sensor_id;sensor_type;location;lat;lon;timestamp;pressure;altitude;pressure_sealevel;temperature
76394;BMP180;65216;51.090;-115.352;2023-04-03T00:01:20;86068.40;;;21.30
76394;BMP180;65216;51.090;-115.352;2023-04-03T00:03:48;86063.40;;;21.30
76394;BMP180;65216;51.090;-115.352;2023-04-03T00:06:15;86059.80;;;21.30
76394;BMP180;65216;51.090;-115.352;2023-04-03T00:08:43;86055.20;;;21.30
76394;BMP180;65216;51.090;-115.352;2023-04-03T00:11:10;86068.80;;;21.30
76394;BMP180;65216;51.090;-115.352;2023-04-03T00:13:42;86070.20;;;21.30
76394;BMP180;65216;51.090;-115.352;2023-04-03T00:16:13;86063.60;;;21.30
76394;BMP180;65216;51.090;-115.352;2023-04-03T00:18:42;86065.00;;;21.30
76394;BMP180;65216;51.090;-115.352;2023-04-03T00:21:12;86080.60;;;21.28
76394;BMP180;65216;51.090;-115.352;2023-04-03T00:24:03;86073.20;;;21.28
76394;BMP180;65216;51.090;-115.352;2023-04-03T00:26:34;86071.80;;;21.30
76394;BMP180;65216;51.090;-115.352;2023-04-03T00:29:01;86090.40;;;21.30
76394;BMP180;65216;51.090;-115.352;2023-04-03T00:31:29;86082.20;;;21.22
76394;BMP180;65216;51.090;-115.352;2023-04-03T00:33:56;86092.80;;;21.22
76394;BMP180;65216;51.090;-115.352;2023-04-03T00:36:28;86083.20;;;21.20
76394;BMP180;65216;51.090;-115.352;2023-04-03T00:38:56;86092.00;;;21.20
76394;BMP180;65216;51.090;-115.352;2023-04-03T00:41:23;86089.60;;;21.20
76394;BMP180;65216;51.090;-115.352;2023-04-03T00:43:50;86086.20;;;21.20
76394;BMP180;65216;51.090;-115.352;2023-04-03T00:46:18;86091.60;;;21.20
76394;BMP180;65216;51.090;-115.352;2023-04-03T00:48:48;86089.00;;;21.20
76394;BMP180;65216;51.090;-115.352;2023-04-03T00:51:24;86088.40;;;21.20
76394;BMP180;65216;51.090;-115.352;2023-04-03T00:54:01;86092.80;;;21.20
76394;BMP180;65216;51.090;-115.352;2023-04-03T00:56:31;86085.20;;;21.20
76394;BMP180;65216;51.090;-115.352;2023-04-03T00:59:13;86085.60;;;21.20
76394;BMP180;65216;51.090;-115.352;2023-04-03T01:01:43;86092.20;;;21.20
76394;BMP180;65216;51.090;-115.352;2023-04-03T01:04:37;86092.60;;;21.20
76394;BMP180;65216;51.090;-115.352;2023-04-03T01:07:26;86098.00;;;21.20
76394;BMP180;65216;51.090;-115.352;2023-04-03T01:10:00;86090.80;;;21.20
76394;BMP180;65216;51.090;-115.352;2023-04-03T01:12:39;86092.40;;;21.20
76394;BMP180;65216;51.090;-115.352;2023-04-03T01:15:17;86097.80;;;21.18
76394;BMP180;65216;51.090;-115.352;2023-04-03T01:17:52;86098.60;;;21.14
76394;BMP180;65216;51.090;-115.352;2023-04-03T01:23:12;86099.80;;;21.12
76394;BMP180;65216;51.090;-115.352;2023-04-03T01:25:56;86104.00;;;21.12
76394;BMP180;65216;51.090;-115.352;2023-04-03T01:28:31;86097.80;;;21.10
76394;BMP180;65216;51.090;-115.352;2023-04-03T01:33:48;86103.60;;;21.10
76394;BMP180;65216;51.090;-115.352;2023-04-03T01:36:28;86106.80;;;21.10
76394;BMP180;65216;51.090;-115.352;2023-04-03T01:38:58;86108.60;;;21.10
76394;BMP180;65216;51.090;-115.352;2023-04-03T01:41:27;86104.80;;;21.10
76394;BMP180;65216;51.090;-115.352;2023-04-03T01:43:55;86098.80;;;21.10
76394;BMP180;65216;51.090;-115.352;2023-04-03T01:46:22;86100.40;;;21.10
76394;BMP180;65216;51.090;-115.352;2023-04-03T01:48:49;86109.00;;;21.10
76394;BMP180;65216;51.090;-115.352;2023-04-03T01:51:17;86104.40;;;21.10
76394;BMP180;65216;51.090;-115.352;2023-04-03T01:53:44;86110.60;;;21.10
76394;BMP180;65216;51.090;-115.352;2023-04-03T01:56:11;86114.20;;;21.02
76394;BMP180;65216;51.090;-115.352;2023-04-03T01:58:39;86114.80;;;21.06
76394;BMP180;65216;51.090;-115.352;2023-04-03T02:01:06;86120.20;;;21.10
76394;BMP180;65216;51.090;-115.352;2023-04-03T02:03:33;86122.00;;;21.02
76394;BMP180;65216;51.090;-115.352;2023-04-03T02:06:04;86118.00;;;21.06
76394;BMP180;65216;51.090;-115.352;2023-04-03T02:08:31;86115.40;;;21.00
76394;BMP180;65216;51.090;-115.352;2023-04-03T02:10:58;86122.80;;;21.06
76394;BMP180;65216;51.090;-115.352;2023-04-03T02:13:26;86124.20;;;21.08
76394;BMP180;65216;51.090;-115.352;2023-04-03T02:15:53;86129.60;;;21.10
76394;BMP180;65216;51.090;-115.352;2023-04-03T02:18:20;86123.80;;;21.10
76394;BMP180;65216;51.090;-115.352;2023-04-03T02:20:51;86122.80;;;21.10
76394;BMP180;65216;51.090;-115.352;2023-04-03T02:23:18;86123.60;;;21.10
76394;BMP180;65216;51.090;-115.352;2023-04-03T02:25:46;86135.80;;;21.10
76394;BMP180;65216;51.090;-115.352;2023-04-03T02:28:17;86137.00;;;21.10
76394;BMP180;65216;51.090;-115.352;2023-04-03T02:30:49;86128.60;;;21.10
76394;BMP180;65216;51.090;-115.352;2023-04-03T02:33:19;86130.20;;;21.10
76394;BMP180;65216;51.090;-115.352;2023-04-03T02:35:52;86138.00;;;21.10
76394;BMP180;65216;51.090;-115.352;2023-04-03T02:38:20;86136.80;;;21.10
76394;BMP180;65216;51.090;-115.352;2023-04-03T02:40:47;86142.60;;;21.10
76394;BMP180;65216;51.090;-115.352;2023-04-03T02:43:15;86147.60;;;21.10
76394;BMP180;65216;51.090;-115.352;2023-04-03T02:45:45;86152.40;;;21.10
76394;BMP180;65216;51.090;-115.352;2023-04-03T02:48:15;86142.00;;;21.10
76394;BMP180;65216;51.090;-115.352;2023-04-03T02:50:43;86149.20;;;21.10
76394;BMP180;65216;51.090;-115.352;2023-04-03T02:53:10;86152.20;;;21.10
76394;BMP180;65216;51.090;-115.352;2023-04-03T02:55:37;86153.40;;;21.08
76394;BMP180;65216;51.090;-115.352;2023-04-03T02:58:04;86164.60;;;21.06
76394;BMP180;65216;51.090;-115.352;2023-04-03T03:00:33;86167.20;;;21.06
76394;BMP180;65216;51.090;-115.352;2023-04-03T03:03:00;86163.80;;;21.10
76394;BMP180;65216;51.090;-115.352;2023-04-03T03:05:33;86160.40;;;21.00
76394;BMP180;65216;51.090;-115.352;2023-04-03T03:08:00;86174.00;;;21.00
76394;BMP180;65216;51.090;-115.352;2023-04-03T03:10:27;86175.40;;;21.00
76394;BMP180;65216;51.090;-115.352;2023-04-03T03:12:54;86176.80;;;21.00
76394;BMP180;65216;51.090;-115.352;2023-04-03T03:15:21;86176.40;;;21.00
76394;BMP180;65216;51.090;-115.352;2023-04-03T03:17:51;86176.00;;;21.00
76394;BMP180;65216;51.090;-115.352;2023-04-03T03:20:18;86175.60;;;21.00
76394;BMP180;65216;51.090;-115.352;2023-04-03T03:22:46;86179.20;;;21.00
76394;BMP180;65216;51.090;-115.352;2023-04-03T03:25:13;86181.00;;;21.00
76394;BMP180;65216;51.090;-115.352;2023-04-03T03:27:44;86181.60;;;20.90
76394;BMP180;65216;51.090;-115.352;2023-04-03T03:30:14;86184.00;;;20.90
76394;BMP180;65216;51.090;-115.352;2023-04-03T03:32:43;86188.00;;;20.90
76394;BMP180;65216;51.090;-115.352;2023-04-03T03:35:13;86188.80;;;20.92
76394;BMP180;65216;51.090;-115.352;2023-04-03T03:37:40;86193.00;;;20.90
76394;BMP180;65216;51.090;-115.352;2023-04-03T03:40:08;86190.20;;;20.90
76394;BMP180;65216;51.090;-115.352;2023-04-03T03:42:35;86192.20;;;20.90
76394;BMP180;65216;51.090;-115.352;2023-04-03T03:45:06;86196.00;;;20.90
76394;BMP180;65216;51.090;-115.352;2023-04-03T03:47:33;86199.20;;;20.90
76394;BMP180;65216;51.090;-115.352;2023-04-03T03:50:01;86197.80;;;20.90
76394;BMP180;65216;51.090;-115.352;2023-04-03T03:52:31;86198.80;;;20.90
76394;BMP180;65216;51.090;-115.352;2023-04-03T03:54:58;86200.40;;;20.90
76394;BMP180;65216;51.090;-115.352;2023-04-03T03:57:31;86199.00;;;20.90
76394;BMP180;65216;51.090;-115.352;2023-04-03T03:59:58;86201.40;;;20.90
76394;BMP180;65216;51.090;-115.352;2023-04-03T04:02:28;86199.40;;;20.90
76394;BMP180;65216;51.090;-115.352;2023-04-03T04:04:55;86197.80;;;20.90
76394;BMP180;65216;51.090;-115.352;2023-04-03T04:07:23;86193.40;;;20.90
76394;BMP180;65216;51.090;-115.352;2023-04-03T04:09:50;86196.00;;;20.90
76394;BMP180;65216;51.090;-115.352;2023-04-03T04:12:17;86194.80;;;20.90
76394;BMP180;65216;51.090;-115.352;2023-04-03T04:14:46;86199.80;;;20.86
76394;BMP180;65216;51.090;-115.352;2023-04-03T04:17:14;86194.40;;;20.82
76394;BMP180;65216;51.090;-115.352;2023-04-03T04:19:41;86196.80;;;20.82
76394;BMP180;65216;51.090;-115.352;2023-04-03T04:22:08;86194.80;;;20.86
76394;BMP180;65216;51.090;-115.352;2023-04-03T04:24:38;86195.20;;;20.80
76394;BMP180;65216;51.090;-115.352;2023-04-03T04:27:08;86198.20;;;20.84
76394;BMP180;65216;51.090;-115.352;2023-04-03T04:29:35;86196.80;;;20.82
76394;BMP180;65216;51.090;-115.352;2023-04-03T04:32:04;86196.80;;;20.80
76394;BMP180;65216;51.090;-115.352;2023-04-03T04:34:31;86196.20;;;20.80
76394;BMP180;65216;51.090;-115.352;2023-04-03T04:36:58;86195.20;;;20.80
76394;BMP180;65216;51.090;-115.352;2023-04-03T04:39:25;86193.00;;;20.80
76394;BMP180;65216;51.090;-115.352;2023-04-03T04:41:56;86194.20;;;20.80
76394;BMP180;65216;51.090;-115.352;2023-04-03T04:44:23;86195.00;;;20.80
76394;BMP180;65216;51.090;-115.352;2023-04-03T04:46:50;86195.40;;;20.80
76394;BMP180;65216;51.090;-115.352;2023-04-03T04:49:17;86201.40;;;20.80
76394;BMP180;65216;51.090;-115.352;2023-04-03T04:51:44;86198.60;;;20.80
76394;BMP180;65216;51.090;-115.352;2023-04-03T04:54:11;86193.80;;;20.80
76394;BMP180;65216;51.090;-115.352;2023-04-03T04:56:42;86200.80;;;20.80
76394;BMP180;65216;51.090;-115.352;2023-04-03T04:59:09;86199.40;;;20.80
76394;BMP180;65216;51.090;-115.352;2023-04-03T05:01:36;86201.60;;;20.80
76394;BMP180;65216;51.090;-115.352;2023-04-03T05:04:04;86196.20;;;20.80
76394;BMP180;65216;51.090;-115.352;2023-04-03T05:06:32;86197.40;;;20.80
76394;BMP180;65216;51.090;-115.352;2023-04-03T05:08:59;86197.20;;;20.80
76394;BMP180;65216;51.090;-115.352;2023-04-03T05:11:29;86198.80;;;20.80
76394;BMP180;65216;51.090;-115.352;2023-04-03T05:13:57;86197.00;;;20.80
76394;BMP180;65216;51.090;-115.352;2023-04-03T05:16:24;86196.80;;;20.80
76394;BMP180;65216;51.090;-115.352;2023-04-03T05:18:51;86194.60;;;20.80
76394;BMP180;65216;51.090;-115.352;2023-04-03T05:21:18;86195.00;;;20.80
76394;BMP180;65216;51.090;-115.352;2023-04-03T05:23:48;86193.60;;;20.80
76394;BMP180;65216;51.090;-115.352;2023-04-03T05:26:15;86197.60;;;20.80
76394;BMP180;65216;51.090;-115.352;2023-04-03T05:28:42;86195.80;;;20.76
76394;BMP180;65216;51.090;-115.352;2023-04-03T05:31:09;86199.60;;;20.78
76394;BMP180;65216;51.090;-115.352;2023-04-03T05:33:37;86195.60;;;20.70
76394;BMP180;65216;51.090;-115.352;2023-04-03T05:36:05;86199.00;;;20.70
76394;BMP180;65216;51.090;-115.352;2023-04-03T05:38:33;86202.80;;;20.70
76394;BMP180;65216;51.090;-115.352;2023-04-03T05:41:00;86202.40;;;20.70
76394;BMP180;65216;51.090;-115.352;2023-04-03T05:43:32;86203.00;;;20.70
76394;BMP180;65216;51.090;-115.352;2023-04-03T05:46:01;86201.00;;;20.70
76394;BMP180;65216;51.090;-115.352;2023-04-03T05:48:28;86204.20;;;20.70
76394;BMP180;65216;51.090;-115.352;2023-04-03T05:50:55;86203.60;;;20.70
76394;BMP180;65216;51.090;-115.352;2023-04-03T05:53:27;86205.00;;;20.70
76394;BMP180;65216;51.090;-115.352;2023-04-03T05:55:58;86210.20;;;20.70
76394;BMP180;65216;51.090;-115.352;2023-04-03T05:58:28;86206.80;;;20.70
76394;BMP180;65216;51.090;-115.352;2023-04-03T06:00:55;86206.00;;;20.70
76394;BMP180;65216;51.090;-115.352;2023-04-03T06:03:22;86210.40;;;20.70
76394;BMP180;65216;51.090;-115.352;2023-04-03T06:05:49;86212.00;;;20.70
76394;BMP180;65216;51.090;-115.352;2023-04-03T06:08:17;86215.80;;;20.70
76394;BMP180;65216;51.090;-115.352;2023-04-03T06:10:46;86220.00;;;20.70
76394;BMP180;65216;51.090;-115.352;2023-04-03T06:13:17;86219.80;;;20.70
76394;BMP180;65216;51.090;-115.352;2023-04-03T06:15:44;86219.80;;;20.70
76394;BMP180;65216;51.090;-115.352;2023-04-03T06:18:11;86222.20;;;20.70
76394;BMP180;65216;51.090;-115.352;2023-04-03T06:20:41;86221.40;;;20.70
76394;BMP180;65216;51.090;-115.352;2023-04-03T06:23:08;86228.00;;;20.70
76394;BMP180;65216;51.090;-115.352;2023-04-03T06:25:36;86228.00;;;20.70
76394;BMP180;65216;51.090;-115.352;2023-04-03T06:28:04;86226.20;;;20.70
76394;BMP180;65216;51.090;-115.352;2023-04-03T06:30:32;86228.80;;;20.70
76394;BMP180;65216;51.090;-115.352;2023-04-03T06:32:59;86227.20;;;20.70
76394;BMP180;65216;51.090;-115.352;2023-04-03T06:35:26;86230.60;;;20.70
76394;BMP180;65216;51.090;-115.352;2023-04-03T06:37:54;86228.80;;;20.70
76394;BMP180;65216;51.090;-115.352;2023-04-03T06:40:25;86230.00;;;20.70
76394;BMP180;65216;51.090;-115.352;2023-04-03T06:42:53;86232.80;;;20.70
76394;BMP180;65216;51.090;-115.352;2023-04-03T06:45:20;86228.40;;;20.70
76394;BMP180;65216;51.090;-115.352;2023-04-03T06:47:48;86231.80;;;20.70
76394;BMP180;65216;51.090;-115.352;2023-04-03T06:50:15;86228.60;;;20.70
76394;BMP180;65216;51.090;-115.352;2023-04-03T06:52:44;86232.60;;;20.70
76394;BMP180;65216;51.090;-115.352;2023-04-03T06:55:14;86234.80;;;20.70
76394;BMP180;65216;51.090;-115.352;2023-04-03T06:57:41;86237.40;;;20.70
76394;BMP180;65216;51.090;-115.352;2023-04-03T07:00:10;86238.40;;;20.70
76394;BMP180;65216;51.090;-115.352;2023-04-03T07:02:38;86237.60;;;20.70
76394;BMP180;65216;51.090;-115.352;2023-04-03T07:05:06;86232.60;;;20.70
76394;BMP180;65216;51.090;-115.352;2023-04-03T07:07:33;86236.40;;;20.70
76394;BMP180;65216;51.090;-115.352;2023-04-03T07:10:01;86237.00;;;20.70
76394;BMP180;65216;51.090;-115.352;2023-04-03T07:12:28;86239.40;;;20.70
76394;BMP180;65216;51.090;-115.352;2023-04-03T07:14:56;86241.00;;;20.70
76394;BMP180;65216;51.090;-115.352;2023-04-03T07:17:23;86242.80;;;20.70
76394;BMP180;65216;51.090;-115.352;2023-04-03T07:19:52;86242.60;;;20.70
76394;BMP180;65216;51.090;-115.352;2023-04-03T07:22:19;86245.20;;;20.70
76394;BMP180;65216;51.090;-115.352;2023-04-03T07:24:46;86246.60;;;20.70
76394;BMP180;65216;51.090;-115.352;2023-04-03T07:27:16;86247.40;;;20.70
76394;BMP180;65216;51.090;-115.352;2023-04-03T07:29:44;86245.20;;;20.70
76394;BMP180;65216;51.090;-115.352;2023-04-03T07:32:14;86247.20;;;20.70
76394;BMP180;65216;51.090;-115.352;2023-04-03T07:34:41;86249.00;;;20.66
76394;BMP180;65216;51.090;-115.352;2023-04-03T07:37:08;86252.20;;;20.64
76394;BMP180;65216;51.090;-115.352;2023-04-03T07:39:35;86254.60;;;20.62
76394;BMP180;65216;51.090;-115.352;2023-04-03T07:42:03;86251.20;;;20.64
76394;BMP180;65216;51.090;-115.352;2023-04-03T07:44:30;86256.20;;;20.68
76394;BMP180;65216;51.090;-115.352;2023-04-03T07:46:57;86256.00;;;20.62
76394;BMP180;65216;51.090;-115.352;2023-04-03T07:49:27;86258.60;;;20.60
76394;BMP180;65216;51.090;-115.352;2023-04-03T07:51:57;86262.00;;;20.60
76394;BMP180;65216;51.090;-115.352;2023-04-03T07:54:25;86261.40;;;20.60
76394;BMP180;65216;51.090;-115.352;2023-04-03T07:56:52;86257.80;;;20.60
76394;BMP180;65216;51.090;-115.352;2023-04-03T07:59:19;86259.20;;;20.60
76394;BMP180;65216;51.090;-115.352;2023-04-03T08:01:46;86255.20;;;20.60
76394;BMP180;65216;51.090;-115.352;2023-04-03T08:04:14;86256.60;;;20.64
76394;BMP180;65216;51.090;-115.352;2023-04-03T08:06:44;86257.60;;;20.60
76394;BMP180;65216;51.090;-115.352;2023-04-03T08:09:11;86260.00;;;20.60
76394;BMP180;65216;51.090;-115.352;2023-04-03T08:11:42;86259.60;;;20.60
76394;BMP180;65216;51.090;-115.352;2023-04-03T08:14:11;86258.80;;;20.60
76394;BMP180;65216;51.090;-115.352;2023-04-03T08:16:44;86261.60;;;20.60
76394;BMP180;65216;51.090;-115.352;2023-04-03T08:19:12;86261.20;;;20.60
76394;BMP180;65216;51.090;-115.352;2023-04-03T08:21:42;86262.80;;;20.60
76394;BMP180;65216;51.090;-115.352;2023-04-03T08:24:10;86261.20;;;20.60
76394;BMP180;65216;51.090;-115.352;2023-04-03T08:26:37;86256.80;;;20.60
76394;BMP180;65216;51.090;-115.352;2023-04-03T08:29:04;86261.00;;;20.60
76394;BMP180;65216;51.090;-115.352;2023-04-03T08:31:31;86259.80;;;20.60
76394;BMP180;65216;51.090;-115.352;2023-04-03T08:33:59;86257.80;;;20.60
76394;BMP180;65216;51.090;-115.352;2023-04-03T08:36:28;86260.20;;;20.60
76394;BMP180;65216;51.090;-115.352;2023-04-03T08:39:00;86255.00;;;20.60
76394;BMP180;65216;51.090;-115.352;2023-04-03T08:41:44;86256.60;;;20.60
76394;BMP180;65216;51.090;-115.352;2023-04-03T08:49:51;86260.00;;;20.60
76394;BMP180;65216;51.090;-115.352;2023-04-03T08:57:45;86261.60;;;20.60
76394;BMP180;65216;51.090;-115.352;2023-04-03T09:00:20;86261.80;;;20.60
76394;BMP180;65216;51.090;-115.352;2023-04-03T09:02:55;86260.60;;;20.60
76394;BMP180;65216;51.090;-115.352;2023-04-03T09:18:05;86259.00;;;20.60
76394;BMP180;65216;51.090;-115.352;2023-04-03T09:20:53;86258.20;;;20.60
76394;BMP180;65216;51.090;-115.352;2023-04-03T09:23:33;86258.40;;;20.60
76394;BMP180;65216;51.090;-115.352;2023-04-03T09:26:20;86261.60;;;20.60
76394;BMP180;65216;51.090;-115.352;2023-04-03T09:28:56;86261.80;;;20.60
76394;BMP180;65216;51.090;-115.352;2023-04-03T09:31:38;86267.80;;;20.60
76394;BMP180;65216;51.090;-115.352;2023-04-03T09:34:31;86265.80;;;20.60
76394;BMP180;65216;51.090;-115.352;2023-04-03T09:37:03;86270.20;;;20.60
76394;BMP180;65216;51.090;-115.352;2023-04-03T09:39:53;86273.40;;;20.60
76394;BMP180;65216;51.090;-115.352;2023-04-03T09:42:24;86272.20;;;20.60
76394;BMP180;65216;51.090;-115.352;2023-04-03T09:45:01;86272.40;;;20.60
76394;BMP180;65216;51.090;-115.352;2023-04-03T09:47:36;86273.80;;;20.60
76394;BMP180;65216;51.090;-115.352;2023-04-03T09:50:21;86276.60;;;20.60
76394;BMP180;65216;51.090;-115.352;2023-04-03T09:52:51;86278.00;;;20.60
76394;BMP180;65216;51.090;-115.352;2023-04-03T09:55:21;86283.00;;;20.60
76394;BMP180;65216;51.090;-115.352;2023-04-03T09:58:03;86281.20;;;20.60
76394;BMP180;65216;51.090;-115.352;2023-04-03T10:00:39;86282.80;;;20.60
76394;BMP180;65216;51.090;-115.352;2023-04-03T10:06:01;86284.00;;;20.60
76394;BMP180;65216;51.090;-115.352;2023-04-03T10:08:35;86283.80;;;20.60
76394;BMP180;65216;51.090;-115.352;2023-04-03T10:11:14;86289.60;;;20.60
76394;BMP180;65216;51.090;-115.352;2023-04-03T10:13:59;86287.80;;;20.60
76394;BMP180;65216;51.090;-115.352;2023-04-03T10:16:37;86291.60;;;20.60
76394;BMP180;65216;51.090;-115.352;2023-04-03T10:25:19;86291.40;;;20.60
76394;BMP180;65216;51.090;-115.352;2023-04-03T10:28:09;86291.20;;;20.60
76394;BMP180;65216;51.090;-115.352;2023-04-03T10:46:10;86289.60;;;20.50
76394;BMP180;65216;51.090;-115.352;2023-04-03T10:51:47;86288.40;;;20.50
76394;BMP180;65216;51.090;-115.352;2023-04-03T10:54:44;86289.40;;;20.50
76394;BMP180;65216;51.090;-115.352;2023-04-03T10:57:13;86290.80;;;20.50
76394;BMP180;65216;51.090;-115.352;2023-04-03T11:00:03;86293.40;;;20.40
76394;BMP180;65216;51.090;-115.352;2023-04-03T11:02:47;86294.40;;;20.40
76394;BMP180;65216;51.090;-115.352;2023-04-03T11:05:48;86295.80;;;20.40
76394;BMP180;65216;51.090;-115.352;2023-04-03T11:08:46;86299.20;;;20.40
76394;BMP180;65216;51.090;-115.352;2023-04-03T11:11:31;86302.20;;;20.40
76394;BMP180;65216;51.090;-115.352;2023-04-03T11:14:28;86299.80;;;20.40
76394;BMP180;65216;51.090;-115.352;2023-04-03T11:22:51;86305.40;;;20.40
76394;BMP180;65216;51.090;-115.352;2023-04-03T11:25:25;86307.60;;;20.40
76394;BMP180;65216;51.090;-115.352;2023-04-03T11:28:02;86302.40;;;20.40
76394;BMP180;65216;51.090;-115.352;2023-04-03T11:33:44;86306.20;;;20.40
76394;BMP180;65216;51.090;-115.352;2023-04-03T11:36:44;86307.80;;;20.40
76394;BMP180;65216;51.090;-115.352;2023-04-03T11:39:34;86305.60;;;20.38
76394;BMP180;65216;51.090;-115.352;2023-04-03T11:42:20;86312.40;;;20.38
76394;BMP180;65216;51.090;-115.352;2023-04-03T11:44:49;86313.40;;;20.32
76394;BMP180;65216;51.090;-115.352;2023-04-03T11:47:49;86320.40;;;20.30
76394;BMP180;65216;51.090;-115.352;2023-04-03T11:50:41;86322.00;;;20.30
76394;BMP180;65216;51.090;-115.352;2023-04-03T11:56:00;86327.00;;;20.30
76394;BMP180;65216;51.090;-115.352;2023-04-03T11:58:33;86326.40;;;20.30
76394;BMP180;65216;51.090;-115.352;2023-04-03T12:01:05;86327.60;;;20.30
76394;BMP180;65216;51.090;-115.352;2023-04-03T12:04:07;86323.40;;;20.30
76394;BMP180;65216;51.090;-115.352;2023-04-03T12:11:49;86333.00;;;20.30
76394;BMP180;65216;51.090;-115.352;2023-04-03T12:14:17;86339.40;;;20.30
76394;BMP180;65216;51.090;-115.352;2023-04-03T12:16:47;86335.80;;;20.30
76394;BMP180;65216;51.090;-115.352;2023-04-03T12:19:38;86337.20;;;20.30
76394;BMP180;65216;51.090;-115.352;2023-04-03T12:22:17;86330.40;;;20.30
76394;BMP180;65216;51.090;-115.352;2023-04-03T12:24:52;86338.80;;;20.30
76394;BMP180;65216;51.090;-115.352;2023-04-03T12:27:39;86344.60;;;20.30
76394;BMP180;65216;51.090;-115.352;2023-04-03T12:30:30;86337.20;;;20.30
76394;BMP180;65216;51.090;-115.352;2023-04-03T12:36:15;86355.40;;;20.30
76394;BMP180;65216;51.090;-115.352;2023-04-03T12:38:59;86352.60;;;20.30
76394;BMP180;65216;51.090;-115.352;2023-04-03T12:45:20;86350.80;;;20.30
76394;BMP180;65216;51.090;-115.352;2023-04-03T12:47:55;86350.60;;;20.30
76394;BMP180;65216;51.090;-115.352;2023-04-03T12:50:34;86358.80;;;20.30
76394;BMP180;65216;51.090;-115.352;2023-04-03T12:53:05;86358.00;;;20.28
76394;BMP180;65216;51.090;-115.352;2023-04-03T12:55:33;86359.40;;;20.30
76394;BMP180;65216;51.090;-115.352;2023-04-03T13:01:03;86367.60;;;20.30
76394;BMP180;65216;51.090;-115.352;2023-04-03T13:03:30;86366.40;;;20.30
76394;BMP180;65216;51.090;-115.352;2023-04-03T13:06:02;86367.40;;;20.28
76394;BMP180;65216;51.090;-115.352;2023-04-03T13:08:31;86369.00;;;20.30
76394;BMP180;65216;51.090;-115.352;2023-04-03T13:11:12;86370.00;;;20.28
76394;BMP180;65216;51.090;-115.352;2023-04-03T13:13:41;86374.00;;;20.30
76394;BMP180;65216;51.090;-115.352;2023-04-03T13:16:20;86374.00;;;20.28
76394;BMP180;65216;51.090;-115.352;2023-04-03T13:18:53;86370.60;;;20.28
76394;BMP180;65216;51.090;-115.352;2023-04-03T13:21:28;86371.60;;;20.30
76394;BMP180;65216;51.090;-115.352;2023-04-03T13:24:00;86380.80;;;20.30
76394;BMP180;65216;51.090;-115.352;2023-04-03T13:26:31;86377.00;;;20.30
76394;BMP180;65216;51.090;-115.352;2023-04-03T13:29:19;86378.80;;;20.30
76394;BMP180;65216;51.090;-115.352;2023-04-03T13:31:53;86377.20;;;20.30
76394;BMP180;65216;51.090;-115.352;2023-04-03T13:34:26;86380.80;;;20.30
76394;BMP180;65216;51.090;-115.352;2023-04-03T13:37:01;86380.40;;;20.30
76394;BMP180;65216;51.090;-115.352;2023-04-03T13:39:34;86385.00;;;20.30
76394;BMP180;65216;51.090;-115.352;2023-04-03T13:42:25;86387.20;;;20.30
76394;BMP180;65216;51.090;-115.352;2023-04-03T13:45:36;86391.80;;;20.30
76394;BMP180;65216;51.090;-115.352;2023-04-03T13:48:20;86398.40;;;20.30
76394;BMP180;65216;51.090;-115.352;2023-04-03T13:53:26;86396.40;;;20.30
76394;BMP180;65216;51.090;-115.352;2023-04-03T13:58:34;86408.40;;;20.30
76394;BMP180;65216;51.090;-115.352;2023-04-03T14:01:19;86399.80;;;20.30
76394;BMP180;65216;51.090;-115.352;2023-04-03T14:03:58;86405.20;;;20.34
76394;BMP180;65216;51.090;-115.352;2023-04-03T14:06:29;86398.20;;;20.40
76394;BMP180;65216;51.090;-115.352;2023-04-03T14:08:57;86388.80;;;20.40
76394;BMP180;65216;51.090;-115.352;2023-04-03T14:11:30;86397.80;;;20.40
76394;BMP180;65216;51.090;-115.352;2023-04-03T14:14:09;86396.60;;;20.40
76394;BMP180;65216;51.090;-115.352;2023-04-03T14:16:42;86399.00;;;20.40
76394;BMP180;65216;51.090;-115.352;2023-04-03T14:19:40;86402.20;;;20.40
76394;BMP180;65216;51.090;-115.352;2023-04-03T14:22:30;86403.60;;;20.40
76394;BMP180;65216;51.090;-115.352;2023-04-03T14:25:07;86402.60;;;20.40
76394;BMP180;65216;51.090;-115.352;2023-04-03T14:27:40;86401.20;;;20.40
76394;BMP180;65216;51.090;-115.352;2023-04-03T14:30:20;86403.40;;;20.40
76394;BMP180;65216;51.090;-115.352;2023-04-03T14:32:48;86403.60;;;20.40
76394;BMP180;65216;51.090;-115.352;2023-04-03T14:35:16;86414.80;;;20.40
76394;BMP180;65216;51.090;-115.352;2023-04-03T14:37:46;86410.80;;;20.44
76394;BMP180;65216;51.090;-115.352;2023-04-03T14:40:25;86418.40;;;20.48
76394;BMP180;65216;51.090;-115.352;2023-04-03T14:42:53;86416.00;;;20.50
76394;BMP180;65216;51.090;-115.352;2023-04-03T14:45:23;86420.40;;;20.50
76394;BMP180;65216;51.090;-115.352;2023-04-03T14:47:53;86412.60;;;20.50
76394;BMP180;65216;51.090;-115.352;2023-04-03T14:50:26;86419.60;;;20.50
76394;BMP180;65216;51.090;-115.352;2023-04-03T14:52:57;86413.00;;;20.50
76394;BMP180;65216;51.090;-115.352;2023-04-03T14:55:28;86422.00;;;20.50
76394;BMP180;65216;51.090;-115.352;2023-04-03T14:57:55;86422.20;;;20.50
76394;BMP180;65216;51.090;-115.352;2023-04-03T15:00:23;86420.00;;;20.56
76394;BMP180;65216;51.090;-115.352;2023-04-03T15:02:51;86419.60;;;20.60
76394;BMP180;65216;51.090;-115.352;2023-04-03T15:05:18;86409.00;;;20.60
76394;BMP180;65216;51.090;-115.352;2023-04-03T15:07:55;86414.20;;;20.60
76394;BMP180;65216;51.090;-115.352;2023-04-03T15:10:27;86414.40;;;20.60
76394;BMP180;65216;51.090;-115.352;2023-04-03T15:12:55;86415.60;;;20.60
76394;BMP180;65216;51.090;-115.352;2023-04-03T15:15:28;86409.80;;;20.60
76394;BMP180;65216;51.090;-115.352;2023-04-03T15:18:01;86416.00;;;20.60
76394;BMP180;65216;51.090;-115.352;2023-04-03T15:20:31;86415.40;;;20.60
76394;BMP180;65216;51.090;-115.352;2023-04-03T15:23:04;86410.80;;;20.62
76394;BMP180;65216;51.090;-115.352;2023-04-03T15:25:33;86408.40;;;20.64
76394;BMP180;65216;51.090;-115.352;2023-04-03T15:28:00;86416.20;;;20.70